createdAt,value
2019-04-06T00:01:27.647Z,5.23
2019-04-06T00:03:58.303Z,5.34
2019-04-06T00:06:28.947Z,5.37
2019-04-06T00:08:59.603Z,5.36
2019-04-06T00:11:30.844Z,5.22
2019-04-06T00:14:01.556Z,5.22
2019-04-06T00:16:32.219Z,5.31
2019-04-06T00:19:03.101Z,5.42
2019-04-06T00:21:33.774Z,5.30
2019-04-06T00:24:04.493Z,5.30
2019-04-06T00:26:53.672Z,5.33
2019-04-06T00:29:24.383Z,5.32
2019-04-06T00:31:56.763Z,5.31
2019-04-06T00:34:27.569Z,5.30
2019-04-06T00:36:58.242Z,5.36
2019-04-06T00:39:29.009Z,5.35
2019-04-06T00:41:59.807Z,5.38
2019-04-06T00:44:30.619Z,5.31
2019-04-06T00:47:01.245Z,5.13
2019-04-06T00:49:31.902Z,5.04
2019-04-06T00:52:02.545Z,5.03
2019-04-06T00:54:33.187Z,4.89
2019-04-06T00:57:03.915Z,4.87
2019-04-06T00:59:34.717Z,4.89
2019-04-06T01:02:06.066Z,4.95
2019-04-06T01:04:36.707Z,5.01
2019-04-06T01:07:07.467Z,4.90
2019-04-06T01:09:38.175Z,4.73
2019-04-06T01:12:11.658Z,4.97
2019-04-06T01:14:42.307Z,5.13
2019-04-06T01:17:13.032Z,5.14
2019-04-06T01:19:43.939Z,5.30
2019-04-06T01:22:14.780Z,5.10
2019-04-06T01:24:45.454Z,4.87
2019-04-06T01:27:16.028Z,4.59
2019-04-06T01:29:46.738Z,4.56
2019-04-06T01:32:17.362Z,4.36
2019-04-06T01:34:48.072Z,4.24
2019-04-06T01:37:18.835Z,4.08
2019-04-06T01:39:49.543Z,4.01
2019-04-06T01:42:20.417Z,4.08
2019-04-06T01:44:51.163Z,4.02
2019-04-06T01:47:21.853Z,3.94
2019-04-06T01:49:52.476Z,3.92
2019-04-06T01:52:23.438Z,3.73
2019-04-06T01:54:54.345Z,3.68
2019-04-06T01:57:25.041Z,3.71
2019-04-06T01:59:55.728Z,3.69
2019-04-06T02:02:30.904Z,3.77
2019-04-06T02:05:01.509Z,4.03
2019-04-06T02:07:32.224Z,4.13
2019-04-06T02:10:03.028Z,4.08
2019-04-06T02:12:34.159Z,4.07
2019-04-06T02:15:06.881Z,4.06
2019-04-06T02:17:37.548Z,3.95
2019-04-06T02:20:09.221Z,3.77
2019-04-06T02:22:41.093Z,3.76
2019-04-06T02:25:12.231Z,3.57
2019-04-06T02:27:43.182Z,3.49
2019-04-06T02:30:21.855Z,3.52
2019-04-06T02:33:13.895Z,3.35
2019-04-06T02:36:00.949Z,3.28
2019-04-06T02:38:36.563Z,3.27
2019-04-06T02:41:11.829Z,3.30
2019-04-06T02:43:42.977Z,3.11
2019-04-06T02:46:13.702Z,3.06
2019-04-06T02:48:44.908Z,3.01
2019-04-06T02:51:15.807Z,2.95
2019-04-06T02:53:46.830Z,2.86
2019-04-06T02:56:17.971Z,2.80
2019-04-06T02:58:49.115Z,3.10
2019-04-06T03:01:20.059Z,3.24
2019-04-06T03:03:51.193Z,3.12
2019-04-06T03:06:22.270Z,3.21
2019-04-06T03:08:53.282Z,3.30
2019-04-06T03:11:24.319Z,3.41
2019-04-06T03:13:55.562Z,3.50
2019-04-06T03:16:26.514Z,3.60
2019-04-06T03:18:57.603Z,3.57
2019-04-06T03:21:28.649Z,3.58
2019-04-06T03:23:59.733Z,3.78
2019-04-06T03:26:31.024Z,3.76
2019-04-06T03:29:02.405Z,3.82
2019-04-06T03:31:33.604Z,3.76
2019-04-06T03:34:04.729Z,3.83
2019-04-06T03:36:35.747Z,3.86
2019-04-06T03:39:08.310Z,4.21
2019-04-06T03:41:39.500Z,4.42
2019-04-06T03:44:10.614Z,4.51
2019-04-06T03:46:43.601Z,4.59
2019-04-06T03:49:14.742Z,4.60
2019-04-06T03:51:45.687Z,4.50
2019-04-06T03:54:16.563Z,4.45
2019-04-06T03:56:47.440Z,4.49
2019-04-06T03:59:18.818Z,4.66
2019-04-06T04:01:49.852Z,4.85
2019-04-06T04:04:21.040Z,4.92
2019-04-06T04:06:52.234Z,5.05
2019-04-06T04:09:23.268Z,5.04
2019-04-06T04:11:54.116Z,5.11
2019-04-06T04:14:25.254Z,5.20
2019-04-06T04:16:56.288Z,5.23
2019-04-06T04:19:27.232Z,5.40
2019-04-06T04:21:58.269Z,5.53
2019-04-06T04:24:29.411Z,5.70
2019-04-06T04:27:00.669Z,5.87
2019-04-06T04:29:31.526Z,6.15
2019-04-06T04:32:02.606Z,6.33
2019-04-06T04:34:33.689Z,6.66
2019-04-06T04:37:04.721Z,7.75
2019-04-06T04:39:35.762Z,9.01
2019-04-06T04:42:06.720Z,9.90
2019-04-06T04:44:37.666Z,10.56
2019-04-06T04:47:08.683Z,11.52
2019-04-06T04:49:39.818Z,12.16
2019-04-06T04:52:10.860Z,12.70
2019-04-06T04:54:41.808Z,12.54
2019-04-06T04:57:12.711Z,12.58
2019-04-06T04:59:43.701Z,12.83
2019-04-06T05:02:14.720Z,13.02
2019-04-06T05:04:45.657Z,13.41
2019-04-06T05:07:17.919Z,12.97
2019-04-06T05:09:48.704Z,12.61
2019-04-06T05:12:19.329Z,13.15
2019-04-06T05:15:01.794Z,13.08
2019-04-06T05:17:32.704Z,13.10
2019-04-06T05:20:04.791Z,13.58
2019-04-06T05:22:35.440Z,12.48
2019-04-06T05:25:07.768Z,12.26
2019-04-06T05:27:38.434Z,12.96
2019-04-06T05:30:09.889Z,11.84
2019-04-06T05:32:40.629Z,11.51
2019-04-06T05:35:11.975Z,12.06
2019-04-06T05:37:42.614Z,11.69
2019-04-06T05:40:17.127Z,12.82
2019-04-06T05:42:48.104Z,12.14
2019-04-06T05:45:19.426Z,12.37
2019-04-06T05:47:50.083Z,12.07
2019-04-06T05:50:20.860Z,11.16
2019-04-06T05:52:51.725Z,11.02
2019-04-06T05:55:24.478Z,10.65
2019-04-06T05:58:03.454Z,10.54
2019-04-06T06:00:27.983Z,10.48
2019-04-06T06:02:58.595Z,10.42
2019-04-06T06:05:29.689Z,10.41
2019-04-06T06:08:00.675Z,10.57
2019-04-06T06:10:31.444Z,10.73
2019-04-06T06:13:02.127Z,11.09
2019-04-06T06:15:32.857Z,10.91
2019-04-06T06:18:05.172Z,11.11
2019-04-06T06:20:35.908Z,11.21
2019-04-06T06:23:06.661Z,11.29
2019-04-06T06:25:37.601Z,10.91
2019-04-06T06:28:14.227Z,11.06
2019-04-06T06:30:40.645Z,11.07
2019-04-06T06:33:11.873Z,11.22
2019-04-06T06:35:42.524Z,11.44
2019-04-06T06:38:13.596Z,11.64
2019-04-06T06:40:44.473Z,11.61
2019-04-06T06:43:15.297Z,11.54
2019-04-06T06:45:46.029Z,11.51
2019-04-06T06:48:17.019Z,11.78
2019-04-06T06:50:47.796Z,12.01
2019-04-06T06:53:18.759Z,11.76
2019-04-06T06:55:49.377Z,11.52
2019-04-06T06:58:25.107Z,11.67
2019-04-06T07:00:52.406Z,11.63
2019-04-06T07:03:23.054Z,11.57
2019-04-06T07:05:53.733Z,11.59
2019-04-06T07:08:24.779Z,11.51
2019-04-06T07:10:55.816Z,11.70
2019-04-06T07:13:26.501Z,12.00
2019-04-06T07:15:57.505Z,12.32
2019-04-06T07:18:28.167Z,12.03
2019-04-06T07:20:58.989Z,12.21
2019-04-06T07:23:29.992Z,12.06
2019-04-06T07:26:04.020Z,11.94
2019-04-06T07:28:38.431Z,11.92
2019-04-06T07:31:07.918Z,11.78
2019-04-06T07:33:38.975Z,11.99
2019-04-06T07:36:09.938Z,12.10
2019-04-06T07:38:40.612Z,12.04
2019-04-06T07:41:11.207Z,12.06
2019-04-06T07:43:42.236Z,12.20
2019-04-06T07:46:12.920Z,12.21
2019-04-06T07:48:43.638Z,12.26
2019-04-06T07:51:14.362Z,12.28
2019-04-06T07:53:45.182Z,12.30
2019-04-06T07:56:16.395Z,12.49
2019-04-06T07:58:49.876Z,12.54
2019-04-06T08:01:20.319Z,12.79
2019-04-06T08:03:52.886Z,12.72
2019-04-06T08:06:23.727Z,12.69
2019-04-06T08:08:54.485Z,12.82
2019-04-06T08:11:25.525Z,12.85
2019-04-06T08:13:56.752Z,12.81
2019-04-06T08:16:28.165Z,12.73
2019-04-06T08:19:01.936Z,12.75
2019-04-06T08:21:33.051Z,12.93
2019-04-06T08:24:04.416Z,12.71
2019-04-06T08:26:35.102Z,12.72
2019-04-06T08:29:06.574Z,12.76
2019-04-06T08:31:37.639Z,12.70
2019-04-06T08:34:08.354Z,12.75
2019-04-06T08:36:39.182Z,12.88
2019-04-06T08:39:10.368Z,12.82
2019-04-06T08:41:41.124Z,12.72
2019-04-06T08:44:11.849Z,12.83
2019-04-06T08:46:43.659Z,12.89
2019-04-06T08:49:14.535Z,12.86
2019-04-06T08:51:45.389Z,12.86
2019-04-06T08:54:16.004Z,13.01
2019-04-06T08:56:46.738Z,13.23
2019-04-06T08:59:17.840Z,13.23
2019-04-06T09:01:48.799Z,13.12
2019-04-06T09:04:19.453Z,13.01
2019-04-06T09:06:50.634Z,13.03
2019-04-06T09:09:21.337Z,13.23
2019-04-06T09:11:52.084Z,13.32
2019-04-06T09:14:23.211Z,13.38
2019-04-06T09:16:53.959Z,13.44
2019-04-06T09:19:24.601Z,13.40
2019-04-06T09:21:55.349Z,13.45
2019-04-06T09:24:26.219Z,13.46
2019-04-06T09:26:56.894Z,13.41
2019-04-06T09:29:27.525Z,13.21
2019-04-06T09:31:58.243Z,13.27
2019-04-06T09:34:31.000Z,13.50
2019-04-06T09:37:01.351Z,13.57
2019-04-06T09:39:32.027Z,13.65
2019-04-06T09:42:02.729Z,13.53
2019-04-06T09:44:40.661Z,13.50
2019-04-06T09:47:15.917Z,13.25
2019-04-06T09:49:48.171Z,13.09
2019-04-06T09:52:23.112Z,13.22
2019-04-06T09:55:04.159Z,13.38
2019-04-06T09:57:52.651Z,13.49
2019-04-06T10:00:30.501Z,13.69
2019-04-06T10:03:15.257Z,13.81
2019-04-06T10:05:53.944Z,13.86
2019-04-06T10:08:42.750Z,13.81
2019-04-06T10:11:31.840Z,13.57
2019-04-06T10:14:07.204Z,13.40
2019-04-06T10:16:45.288Z,13.23
2019-04-06T10:19:20.431Z,13.08
2019-04-06T10:21:52.691Z,13.30
2019-04-06T10:24:27.840Z,13.35
2019-04-06T10:27:12.185Z,13.31
2019-04-06T10:29:50.102Z,13.58
2019-04-06T10:32:40.731Z,13.57
2019-04-06T10:35:28.277Z,13.68
2019-04-06T10:38:03.268Z,13.88
2019-04-06T10:40:35.475Z,13.98
2019-04-06T10:43:07.774Z,13.97
2019-04-06T10:45:39.989Z,13.97
2019-04-06T10:48:12.224Z,13.94
2019-04-06T10:51:01.135Z,14.05
2019-04-06T10:53:48.567Z,13.93
2019-04-06T10:56:26.978Z,13.83
2019-04-06T10:59:03.419Z,13.87
2019-04-06T11:01:45.197Z,13.83
2019-04-06T11:04:20.534Z,13.83
2019-04-06T11:07:08.946Z,13.99
2019-04-06T11:09:41.252Z,14.10
2019-04-06T11:12:28.645Z,13.96
2019-04-06T11:15:09.879Z,13.84
2019-04-06T11:17:45.304Z,13.86
2019-04-06T11:20:26.822Z,13.91
2019-04-06T11:23:14.178Z,13.90
2019-04-06T11:25:46.397Z,13.90
2019-04-06T11:28:24.910Z,13.86
2019-04-06T11:31:03.709Z,13.72
2019-04-06T11:33:36.397Z,13.91
2019-04-06T11:36:15.203Z,13.87
2019-04-06T11:38:53.836Z,14.19
2019-04-06T11:41:26.399Z,13.93
2019-04-06T11:43:59.337Z,14.08
2019-04-06T11:46:32.330Z,13.92
2019-04-06T11:49:21.303Z,13.88
2019-04-06T11:51:53.909Z,13.92
2019-04-06T11:54:41.931Z,14.20
2019-04-06T11:57:31.314Z,14.13
2019-04-06T12:00:26.053Z,14.16
2019-04-06T12:03:05.974Z,14.08
2019-04-06T12:05:54.330Z,14.13
2019-04-06T12:08:29.760Z,14.10
2019-04-06T12:11:05.148Z,14.17
2019-04-06T12:13:52.506Z,14.19
2019-04-06T12:16:27.845Z,14.17
2019-04-06T12:19:02.883Z,14.16
2019-04-06T12:21:40.925Z,14.15
2019-04-06T12:24:13.561Z,14.20
2019-04-06T12:26:45.827Z,14.28
2019-04-06T12:29:18.167Z,14.20
2019-04-06T12:32:06.898Z,14.19
2019-04-06T12:34:54.452Z,14.13
2019-04-06T12:37:26.771Z,14.07
2019-04-06T12:40:10.952Z,14.13
2019-04-06T12:43:01.221Z,14.26
2019-04-06T12:45:42.738Z,14.29
2019-04-06T12:48:31.726Z,14.32
2019-04-06T12:51:09.756Z,14.34
2019-04-06T12:53:54.312Z,14.17
2019-04-06T12:56:26.694Z,14.35
2019-04-06T12:59:07.818Z,14.33
2019-04-06T13:01:52.348Z,14.28
2019-04-06T13:04:30.717Z,14.35
2019-04-06T13:07:12.095Z,14.40
2019-04-06T13:09:59.927Z,14.37
2019-04-06T13:12:35.061Z,14.31
2019-04-06T13:15:14.559Z,14.29
2019-04-06T13:17:49.619Z,14.20
2019-04-06T13:20:24.818Z,14.22
2019-04-06T13:23:11.928Z,14.33
2019-04-06T13:25:56.195Z,14.39
2019-04-06T13:28:44.836Z,14.42
2019-04-06T13:31:22.968Z,14.49
2019-04-06T13:34:04.287Z,14.52
2019-04-06T13:36:39.366Z,14.44
2019-04-06T13:39:14.572Z,14.45
2019-04-06T13:41:52.546Z,14.41
2019-04-06T13:44:24.868Z,14.40
2019-04-06T13:47:00.066Z,14.45
2019-04-06T13:49:48.669Z,14.50
2019-04-06T13:52:33.058Z,14.44
2019-04-06T13:55:11.436Z,14.23
2019-04-06T13:57:43.780Z,14.17
2019-04-06T14:00:19.330Z,14.15
2019-04-06T14:02:57.106Z,14.19
2019-04-06T14:05:29.297Z,14.28
2019-04-06T14:08:01.595Z,14.43
2019-04-06T14:10:36.702Z,14.46
2019-04-06T14:13:18.062Z,14.41
2019-04-06T14:15:50.352Z,14.39
2019-04-06T14:18:29.248Z,14.39
2019-04-06T14:21:01.418Z,14.38
2019-04-06T14:23:49.905Z,14.38
2019-04-06T14:26:34.505Z,14.39
2019-04-06T14:29:11.203Z,14.36
2019-04-06T14:31:52.277Z,14.28
2019-04-06T14:34:37.221Z,14.16
2019-04-06T14:37:18.476Z,14.20
2019-04-06T14:39:59.560Z,14.19
2019-04-06T14:42:37.647Z,14.20
2019-04-06T14:45:16.158Z,14.19
2019-04-06T14:47:57.503Z,14.20
2019-04-06T14:50:33.022Z,14.18
2019-04-06T14:53:05.589Z,14.14
2019-04-06T14:55:54.549Z,14.07
2019-04-06T14:58:43.582Z,14.03
2019-04-06T15:01:18.721Z,14.02
2019-04-06T15:03:51.172Z,14.05
2019-04-06T15:06:32.578Z,14.01
2019-04-06T15:09:07.581Z,14.03
2019-04-06T15:11:42.758Z,13.96
2019-04-06T15:14:17.965Z,13.95
2019-04-06T15:17:02.425Z,14.03
2019-04-06T15:19:34.680Z,13.88
2019-04-06T15:22:09.702Z,13.84
2019-04-06T15:24:57.750Z,13.75
2019-04-06T15:27:46.322Z,13.68
2019-04-06T15:30:22.505Z,13.75
2019-04-06T15:32:54.777Z,13.60
2019-04-06T15:35:43.790Z,13.58
2019-04-06T15:38:19.247Z,13.57
2019-04-06T15:40:59.553Z,13.46
2019-04-06T15:43:50.422Z,13.50
2019-04-06T15:46:39.305Z,13.48
2019-04-06T15:49:23.489Z,13.38
2019-04-06T15:52:10.161Z,13.19
2019-04-06T15:54:41.458Z,13.04
2019-04-06T15:57:13.766Z,13.04
2019-04-06T16:00:01.358Z,13.01
2019-04-06T16:02:49.791Z,12.83
2019-04-06T16:05:40.249Z,12.64
2019-04-06T16:08:12.501Z,12.67
2019-04-06T16:10:47.502Z,12.50
2019-04-06T16:13:36.191Z,12.45
2019-04-06T16:16:14.708Z,12.50
2019-04-06T16:18:49.712Z,12.36
2019-04-06T16:21:22.076Z,12.27
2019-04-06T16:24:10.609Z,12.21
2019-04-06T16:26:42.838Z,12.09
2019-04-06T16:29:31.496Z,12.06
2019-04-06T16:32:13.532Z,11.97
2019-04-06T16:35:01.417Z,11.88
2019-04-06T16:37:46.001Z,11.67
2019-04-06T16:40:34.970Z,11.68
2019-04-06T16:43:13.797Z,11.76
2019-04-06T16:45:46.012Z,11.79
2019-04-06T16:48:20.992Z,11.69
2019-04-06T16:50:56.618Z,11.58
2019-04-06T16:53:35.239Z,11.35
2019-04-06T16:56:07.498Z,11.56
2019-04-06T16:58:55.268Z,11.73
2019-04-06T17:01:30.613Z,11.74
2019-04-06T17:04:03.061Z,11.71
2019-04-06T17:06:51.589Z,11.66
2019-04-06T17:09:23.783Z,11.66
2019-04-06T17:12:05.105Z,11.79
2019-04-06T17:14:38.160Z,11.73
2019-04-06T17:17:27.293Z,11.74
2019-04-06T17:20:02.328Z,11.60
2019-04-06T17:22:34.700Z,11.61
2019-04-06T17:25:16.830Z,11.63
2019-04-06T17:28:05.557Z,11.45
2019-04-06T17:30:46.855Z,11.51
2019-04-06T17:33:21.762Z,11.32
2019-04-06T17:35:57.098Z,11.30
2019-04-06T17:38:29.458Z,11.30
2019-04-06T17:41:01.804Z,11.26
2019-04-06T17:43:40.352Z,11.25
2019-04-06T17:46:12.894Z,11.31
2019-04-06T17:48:54.598Z,11.23
2019-04-06T17:51:36.163Z,11.22
2019-04-06T17:54:12.878Z,11.14
2019-04-06T17:56:45.393Z,11.06
2019-04-06T17:59:33.877Z,11.06
2019-04-06T18:02:06.510Z,11.12
2019-04-06T18:04:41.867Z,11.14
2019-04-06T18:07:27.571Z,11.02
2019-04-06T18:10:15.904Z,11.13
2019-04-06T18:12:54.229Z,11.01
2019-04-06T18:15:25.001Z,11.07
2019-04-06T18:17:56.106Z,10.94
2019-04-06T18:20:26.924Z,10.81
2019-04-06T18:22:58.066Z,10.98
2019-04-06T18:25:28.853Z,10.93
2019-04-06T18:27:59.488Z,10.99
2019-04-06T18:30:30.532Z,10.92
2019-04-06T18:33:03.780Z,11.00
2019-04-06T18:35:34.644Z,10.92
2019-04-06T18:38:10.062Z,10.98
2019-04-06T18:40:40.769Z,10.99
2019-04-06T18:43:11.475Z,10.90
2019-04-06T18:45:42.131Z,10.70
2019-04-06T18:48:13.289Z,10.74
2019-04-06T18:50:44.107Z,10.74
2019-04-06T18:53:14.698Z,10.60
2019-04-06T18:55:45.311Z,10.65
2019-04-06T18:58:15.977Z,10.64
2019-04-06T19:00:46.738Z,10.56
2019-04-06T19:03:17.568Z,10.54
2019-04-06T19:05:50.038Z,10.39
2019-04-06T19:08:20.860Z,10.32
2019-04-06T19:10:51.588Z,10.29
2019-04-06T19:13:23.282Z,10.16
2019-04-06T19:15:54.577Z,10.10
2019-04-06T19:18:25.402Z,10.30
2019-04-06T19:20:56.506Z,10.27
2019-04-06T19:23:28.736Z,10.22
2019-04-06T19:25:59.452Z,10.09
2019-04-06T19:28:31.693Z,10.19
2019-04-06T19:31:02.558Z,10.39
2019-04-06T19:33:33.285Z,10.51
2019-04-06T19:36:04.374Z,10.52
2019-04-06T19:38:35.050Z,10.39
2019-04-06T19:41:06.303Z,10.44
2019-04-06T19:43:36.944Z,10.40
2019-04-06T19:46:07.665Z,10.33
2019-04-06T19:48:40.514Z,10.33
2019-04-06T19:51:10.631Z,10.22
2019-04-06T19:53:41.419Z,10.16
2019-04-06T19:56:12.100Z,10.10
2019-04-06T19:58:42.773Z,10.00
2019-04-06T20:01:13.679Z,9.95
2019-04-06T20:03:44.586Z,9.96
2019-04-06T20:06:15.558Z,10.01
2019-04-06T20:08:46.418Z,9.97
2019-04-06T20:11:17.682Z,9.90
2019-04-06T20:13:48.657Z,9.81
2019-04-06T20:16:20.603Z,9.74
2019-04-06T20:18:51.211Z,9.69
2019-04-06T20:21:21.936Z,9.79
2019-04-06T20:23:52.519Z,9.67
2019-04-06T20:26:23.195Z,9.59
2019-04-06T20:28:53.841Z,9.53
2019-04-06T20:31:24.479Z,9.40
2019-04-06T20:33:55.213Z,9.54
2019-04-06T20:36:26.228Z,9.50
2019-04-06T20:38:57.245Z,9.32
2019-04-06T20:41:27.997Z,9.32
2019-04-06T20:43:58.587Z,9.32
2019-04-06T20:46:32.229Z,9.35
2019-04-06T20:49:02.864Z,9.33
2019-04-06T20:51:33.519Z,9.30
2019-04-06T20:54:04.346Z,9.16
2019-04-06T20:56:35.082Z,9.14
2019-04-06T20:59:05.674Z,9.19
2019-04-06T21:01:36.365Z,9.11
2019-04-06T21:04:07.083Z,9.15
2019-04-06T21:06:37.717Z,9.08
2019-04-06T21:09:10.174Z,9.18
2019-04-06T21:11:41.415Z,9.11
2019-04-06T21:14:12.872Z,9.05
2019-04-06T21:16:43.615Z,8.99
2019-04-06T21:19:14.647Z,9.01
2019-04-06T21:21:45.427Z,9.00
2019-04-06T21:24:16.128Z,8.85
2019-04-06T21:26:46.868Z,8.73
2019-04-06T21:29:19.110Z,8.74
2019-04-06T21:31:51.882Z,8.71
2019-04-06T21:34:22.642Z,8.71
2019-04-06T21:36:53.719Z,8.77
2019-04-06T21:39:24.522Z,8.68
2019-04-06T21:41:55.318Z,8.56
2019-04-06T21:44:26.494Z,8.59
2019-04-06T21:46:59.039Z,8.54
2019-04-06T21:49:29.771Z,8.51
2019-04-06T21:52:02.256Z,8.43
2019-04-06T21:54:32.992Z,8.52
2019-04-06T21:57:03.855Z,8.52
2019-04-06T21:59:34.585Z,8.43
2019-04-06T22:02:07.097Z,8.38
2019-04-06T22:04:37.736Z,8.30
2019-04-06T22:07:08.757Z,8.24
2019-04-06T22:09:39.522Z,8.17
2019-04-06T22:12:10.632Z,8.18
2019-04-06T22:14:41.327Z,8.12
2019-04-06T22:17:12.097Z,8.07
2019-04-06T22:19:42.799Z,7.99
2019-04-06T22:22:13.357Z,7.99
2019-04-06T22:24:44.082Z,8.00
2019-04-06T22:27:14.664Z,8.10
2019-04-06T22:29:45.458Z,8.01
2019-04-06T22:32:17.462Z,8.08
2019-04-06T22:34:48.821Z,8.10
2019-04-06T22:37:19.585Z,8.08
2019-04-06T22:39:50.331Z,8.04
2019-04-06T22:42:20.966Z,7.94
2019-04-06T22:44:52.160Z,8.03
2019-04-06T22:47:23.569Z,8.04
2019-04-06T22:49:54.627Z,7.99
2019-04-06T22:52:25.222Z,7.97
2019-04-06T22:54:55.929Z,7.97
2019-04-06T22:57:26.735Z,7.87
2019-04-06T22:59:57.397Z,7.86
2019-04-06T23:02:29.622Z,7.91
2019-04-06T23:05:01.859Z,7.93
2019-04-06T23:07:32.658Z,7.88
2019-04-06T23:10:03.246Z,7.82
2019-04-06T23:12:33.948Z,7.89
2019-04-06T23:15:06.453Z,7.83
2019-04-06T23:17:37.109Z,7.89
2019-04-06T23:20:08.326Z,7.82
2019-04-06T23:22:39.014Z,7.80
2019-04-06T23:25:09.714Z,7.71
2019-04-06T23:27:40.491Z,7.77
2019-04-06T23:30:11.166Z,7.60
2019-04-06T23:32:42.279Z,7.59
2019-04-06T23:35:13.145Z,7.48
2019-04-06T23:37:43.834Z,7.60
2019-04-06T23:40:14.556Z,7.64
2019-04-06T23:42:45.929Z,7.64
2019-04-06T23:45:16.553Z,7.62
2019-04-06T23:47:47.076Z,7.67
2019-04-06T23:50:17.878Z,7.67
2019-04-06T23:52:48.529Z,7.64
2019-04-06T23:55:19.103Z,7.62
2019-04-06T23:57:49.868Z,7.64
